createdAt,value
2023-12-15T00:00:58.250Z,0.67
2023-12-15T00:01:58.252Z,0.66
2023-12-15T00:02:58.173Z,0.66
2023-12-15T00:03:58.194Z,0.67
2023-12-15T00:04:58.166Z,0.66
2023-12-15T00:05:59.030Z,0.66
2023-12-15T00:06:58.155Z,0.66
2023-12-15T00:56:17.803Z,0.67
2023-12-15T00:56:57.706Z,0.70
2023-12-15T00:57:57.696Z,0.87
2023-12-15T00:58:57.700Z,1.23
2023-12-15T00:59:57.669Z,1.82
2023-12-15T01:00:57.698Z,2.73
2023-12-15T01:01:57.700Z,2.86
2023-12-15T01:02:57.692Z,2.44
2023-12-15T01:03:57.641Z,2.11
2023-12-15T01:04:57.722Z,1.89
2023-12-15T01:05:57.680Z,1.66
2023-12-15T01:06:57.631Z,1.53
2023-12-15T01:07:57.608Z,1.43
2023-12-15T01:08:57.621Z,1.33
2023-12-15T01:09:57.593Z,1.26
2023-12-15T01:10:57.620Z,1.20
2023-12-15T01:11:57.611Z,1.14
2023-12-15T01:12:58.486Z,1.08
2023-12-15T01:13:57.633Z,1.05
2023-12-15T01:14:57.541Z,1.02
2023-12-15T01:15:57.537Z,0.99
2023-12-15T01:16:57.663Z,0.95
2023-12-15T01:17:58.122Z,0.93
2023-12-15T01:18:57.594Z,0.91
2023-12-15T01:19:57.554Z,0.89
2023-12-15T01:20:57.506Z,0.87
2023-12-15T01:21:57.480Z,0.83
2023-12-15T01:22:57.481Z,0.83
2023-12-15T01:23:57.471Z,0.83
2023-12-15T01:24:57.464Z,0.80
2023-12-15T01:25:57.457Z,0.77
2023-12-15T01:26:57.994Z,0.77
2023-12-15T01:27:57.452Z,0.78
2023-12-15T01:28:57.434Z,0.76
2023-12-15T01:29:57.407Z,0.76
2023-12-15T01:30:57.408Z,0.75
2023-12-15T01:31:57.399Z,0.74
2023-12-15T01:32:57.449Z,0.73
2023-12-15T01:33:57.403Z,0.72
2023-12-15T01:34:57.400Z,0.71
2023-12-15T01:35:57.361Z,0.71
2023-12-15T01:36:57.344Z,0.72
2023-12-15T01:37:57.388Z,0.71
2023-12-15T01:38:57.333Z,0.69
2023-12-15T01:39:57.320Z,0.69
2023-12-15T01:40:57.365Z,0.69
2023-12-15T01:41:57.306Z,0.68
2023-12-15T01:42:57.292Z,0.66
2023-12-15T01:43:57.376Z,0.67
2023-12-15T01:44:57.284Z,0.66
2023-12-15T01:46:05.105Z,0.67
2023-12-15T01:46:57.279Z,0.67
2023-12-15T01:47:57.459Z,0.67
2023-12-15T01:48:57.416Z,0.67
2023-12-15T01:49:57.264Z,0.67
2023-12-15T01:50:57.231Z,0.66
2023-12-15T01:51:57.214Z,0.66
2023-12-15T01:52:57.314Z,0.65
2023-12-15T01:53:57.196Z,0.64
2023-12-15T01:54:57.189Z,0.64
2023-12-15T01:55:57.250Z,0.64
2023-12-15T01:56:57.172Z,0.64
2023-12-15T01:57:57.192Z,0.65
2023-12-15T01:58:57.175Z,0.64
2023-12-15T01:59:57.177Z,0.64
2023-12-15T02:00:57.219Z,0.64
2023-12-15T02:01:57.168Z,0.62
2023-12-15T02:02:57.128Z,0.63
2023-12-15T02:03:57.151Z,0.63
2023-12-15T02:04:56.197Z,0.62
2023-12-15T02:05:57.176Z,0.62
2023-12-15T02:06:57.078Z,0.63
2023-12-15T02:07:57.140Z,0.61
2023-12-15T02:08:58.078Z,0.62
2023-12-15T02:09:57.059Z,0.62
2023-12-15T02:10:57.072Z,0.61
2023-12-15T02:11:57.045Z,0.61
2023-12-15T02:12:57.052Z,0.62
2023-12-15T02:13:57.078Z,0.61
2023-12-15T02:14:57.020Z,0.60
2023-12-15T02:15:57.057Z,0.61
2023-12-15T02:16:57.065Z,0.61
2023-12-15T02:17:56.152Z,0.61
2023-12-15T02:18:57.062Z,0.61
2023-12-15T02:19:57.040Z,0.61
2023-12-15T02:20:57.041Z,0.60
2023-12-15T02:21:57.583Z,0.61
2023-12-15T02:22:56.073Z,0.61
2023-12-15T02:23:57.514Z,0.60
2023-12-15T02:24:57.026Z,0.61
2023-12-15T02:25:57.075Z,0.60
2023-12-15T02:26:57.056Z,0.60
2023-12-15T02:27:57.049Z,0.60
2023-12-15T02:28:57.057Z,0.60
2023-12-15T02:29:56.024Z,0.60
2023-12-15T02:30:57.119Z,0.60
2023-12-15T02:31:57.264Z,0.60
2023-12-15T02:32:57.173Z,0.58
2023-12-15T02:33:57.098Z,0.59
2023-12-15T02:34:57.054Z,0.59
2023-12-15T02:35:57.048Z,0.59
2023-12-15T02:36:57.040Z,0.58
2023-12-15T02:37:57.115Z,0.58
2023-12-15T02:38:57.031Z,0.58
2023-12-15T02:39:57.039Z,0.58
2023-12-15T02:40:57.053Z,0.59
2023-12-15T02:41:56.042Z,0.58
2023-12-15T02:42:57.045Z,0.58
2023-12-15T02:43:57.086Z,0.58
2023-12-15T02:44:57.032Z,0.58
2023-12-15T02:45:57.050Z,0.59
2023-12-15T02:46:57.064Z,0.58
2023-12-15T02:47:57.136Z,0.58
2023-12-15T02:48:57.134Z,0.58
2023-12-15T02:49:57.075Z,0.58
2023-12-15T02:50:57.035Z,0.58
2023-12-15T02:51:57.041Z,0.57
2023-12-15T02:52:57.056Z,0.58
2023-12-15T02:53:57.050Z,0.57
2023-12-15T02:54:57.045Z,0.57
2023-12-15T02:55:57.097Z,0.58
2023-12-15T02:56:58.029Z,0.57
2023-12-15T02:57:56.662Z,0.57
2023-12-15T02:58:55.665Z,0.57
2023-12-15T02:59:56.613Z,0.57
2023-12-15T03:00:56.631Z,0.58
2023-12-15T03:01:56.632Z,0.59
2023-12-15T03:02:56.614Z,0.59
2023-12-15T03:03:56.618Z,0.58
2023-12-15T03:04:56.584Z,0.58
2023-12-15T03:05:56.588Z,0.58
2023-12-15T03:06:56.557Z,0.57
2023-12-15T03:07:56.564Z,0.58
2023-12-15T03:08:56.542Z,0.57
2023-12-15T03:09:56.555Z,0.57
2023-12-15T03:10:56.562Z,0.57
2023-12-15T03:11:55.510Z,0.57
2023-12-15T03:12:56.535Z,0.57
2023-12-15T03:13:56.558Z,0.57
2023-12-15T03:14:56.510Z,0.57
2023-12-15T03:15:56.481Z,0.58
2023-12-15T03:16:56.515Z,0.57
2023-12-15T03:17:56.559Z,0.56
2023-12-15T03:18:56.471Z,0.56
2023-12-15T03:19:56.485Z,0.56
2023-12-15T03:20:56.434Z,0.55
2023-12-15T03:21:56.423Z,0.57
2023-12-15T03:22:55.453Z,0.57
2023-12-15T03:23:56.418Z,0.57
2023-12-15T03:24:56.398Z,0.55
2023-12-15T03:25:56.425Z,0.56
2023-12-15T03:26:56.392Z,0.55
2023-12-15T03:27:56.374Z,0.56
2023-12-15T03:28:56.371Z,0.56
2023-12-15T03:29:56.058Z,0.56
2023-12-15T03:30:56.372Z,0.56
2023-12-15T03:31:56.376Z,0.57
2023-12-15T03:32:56.435Z,0.57
2023-12-15T03:33:56.387Z,0.55
2023-12-15T03:34:56.462Z,0.57
2023-12-15T03:35:56.329Z,0.56
2023-12-15T03:36:56.293Z,0.55
2023-12-15T03:37:56.313Z,0.56
2023-12-15T03:38:56.312Z,0.55
2023-12-15T03:39:56.268Z,0.54
2023-12-15T03:40:56.301Z,0.55
2023-12-15T03:41:56.245Z,0.56
2023-12-15T03:42:56.270Z,0.55
2023-12-15T03:43:56.310Z,0.55
2023-12-15T03:44:56.221Z,0.55
2023-12-15T03:45:55.217Z,0.55
2023-12-15T03:46:56.272Z,0.55
2023-12-15T03:47:56.326Z,0.56
2023-12-15T03:48:56.302Z,0.55
2023-12-15T03:49:56.190Z,0.56
2023-12-15T03:50:56.165Z,0.55
2023-12-15T03:51:56.182Z,0.54
2023-12-15T03:52:56.224Z,0.55
2023-12-15T03:53:56.158Z,0.55
2023-12-15T03:54:57.611Z,0.55
2023-12-15T03:55:56.271Z,0.54
2023-12-15T03:56:56.246Z,0.55
2023-12-15T03:57:56.257Z,0.55
2023-12-15T03:58:56.277Z,0.55
2023-12-15T03:59:56.214Z,0.54
2023-12-15T04:00:56.269Z,0.55
2023-12-15T04:01:56.234Z,0.54
2023-12-15T04:02:56.249Z,0.54
2023-12-15T04:03:56.178Z,0.54
2023-12-15T04:04:55.233Z,0.54
2023-12-15T04:05:56.249Z,0.55
2023-12-15T04:06:55.147Z,0.55
2023-12-15T04:07:56.242Z,0.54
2023-12-15T04:08:56.137Z,0.53
2023-12-15T04:09:56.134Z,0.55
2023-12-15T04:10:56.193Z,0.54
2023-12-15T04:11:56.116Z,0.54
2023-12-15T04:12:55.137Z,0.54
2023-12-15T04:13:56.179Z,0.54
2023-12-15T04:14:56.098Z,0.54
2023-12-15T04:15:57.774Z,0.54
2023-12-15T04:16:56.127Z,0.54
2023-12-15T04:17:56.297Z,0.54
2023-12-15T04:18:56.232Z,0.54
2023-12-15T04:19:56.247Z,0.55
2023-12-15T04:20:56.157Z,0.55
2023-12-15T04:21:56.105Z,0.55
2023-12-15T04:22:56.185Z,0.55
2023-12-15T04:23:56.124Z,0.55
2023-12-15T04:24:56.121Z,0.55
2023-12-15T04:25:56.129Z,0.55
2023-12-15T04:26:56.136Z,0.54
2023-12-15T04:27:56.110Z,0.54
2023-12-15T04:28:56.193Z,0.54
2023-12-15T04:29:56.105Z,0.54
2023-12-15T04:30:56.131Z,0.54
2023-12-15T04:31:56.133Z,0.53
2023-12-15T04:32:56.119Z,0.54
2023-12-15T04:33:56.106Z,0.53
2023-12-15T04:34:56.134Z,0.53
2023-12-15T04:35:56.112Z,0.54
2023-12-15T04:36:56.108Z,0.54
2023-12-15T04:37:56.116Z,0.54
2023-12-15T04:38:56.104Z,0.53
2023-12-15T04:39:56.127Z,0.54
2023-12-15T04:40:56.135Z,0.54
2023-12-15T04:41:56.100Z,0.53
2023-12-15T04:42:56.128Z,0.55
2023-12-15T04:43:56.128Z,0.55
2023-12-15T04:44:56.108Z,0.55
2023-12-15T04:45:54.814Z,0.54
2023-12-15T04:46:56.122Z,0.54
2023-12-15T04:47:56.241Z,0.54
2023-12-15T04:48:56.282Z,0.53
2023-12-15T04:49:56.129Z,0.54
2023-12-15T04:50:56.098Z,0.54
2023-12-15T04:51:54.755Z,0.54
2023-12-15T04:52:55.759Z,0.54
2023-12-15T04:53:55.736Z,0.52
2023-12-15T04:54:55.734Z,0.54
2023-12-15T04:55:55.820Z,0.54
2023-12-15T04:56:55.718Z,0.54
2023-12-15T04:57:55.705Z,0.53
2023-12-15T04:58:55.738Z,0.54
2023-12-15T04:59:55.682Z,0.54
2023-12-15T05:00:55.728Z,0.54
2023-12-15T05:01:55.701Z,0.54
2023-12-15T05:02:55.665Z,0.53
2023-12-15T05:03:55.722Z,0.53
2023-12-15T05:04:56.596Z,0.53
2023-12-15T05:05:55.853Z,0.53
2023-12-15T05:06:55.642Z,0.53
2023-12-15T05:07:55.687Z,0.52
2023-12-15T05:08:54.606Z,0.53
2023-12-15T05:09:55.637Z,0.53
2023-12-15T05:10:55.609Z,0.53
2023-12-15T05:11:55.615Z,0.53
2023-12-15T05:12:55.582Z,0.53
2023-12-15T05:13:55.565Z,0.54
2023-12-15T05:14:55.574Z,0.53
2023-12-15T05:15:55.543Z,0.53
2023-12-15T05:16:55.553Z,0.53
2023-12-15T05:17:55.677Z,0.53
2023-12-15T05:18:55.597Z,0.53
2023-12-15T05:19:55.544Z,0.52
2023-12-15T05:20:55.494Z,0.52
2023-12-15T05:21:54.494Z,0.52
2023-12-15T05:22:55.561Z,0.53
2023-12-15T05:23:55.472Z,0.53
2023-12-15T05:24:55.475Z,0.53
2023-12-15T05:25:55.474Z,0.53
2023-12-15T05:26:55.444Z,0.52
2023-12-15T05:27:55.468Z,0.52
2023-12-15T05:28:58.241Z,0.52
2023-12-15T05:29:55.436Z,0.52
2023-12-15T05:30:55.483Z,0.52
2023-12-15T05:31:55.457Z,0.52
2023-12-15T05:32:54.567Z,0.53
2023-12-15T05:33:55.434Z,0.53
2023-12-15T05:34:55.386Z,0.53
2023-12-15T05:35:55.401Z,0.53
2023-12-15T05:36:55.368Z,0.53
2023-12-15T05:37:55.423Z,0.53
2023-12-15T05:38:55.336Z,0.53
2023-12-15T05:39:55.344Z,0.52
2023-12-15T05:40:55.375Z,0.53
2023-12-15T05:41:55.308Z,0.53
2023-12-15T05:42:55.301Z,0.52
2023-12-15T05:43:55.319Z,0.53
2023-12-15T05:44:55.279Z,0.52
2023-12-15T05:45:55.276Z,0.52
2023-12-15T05:46:55.343Z,0.52
2023-12-15T05:47:55.468Z,0.52
2023-12-15T05:48:55.512Z,0.53
2023-12-15T05:49:55.372Z,0.52
2023-12-15T05:50:55.296Z,0.52
2023-12-15T05:51:55.219Z,0.53
2023-12-15T05:52:55.259Z,0.53
2023-12-15T05:53:58.261Z,0.52
2023-12-15T05:54:55.207Z,0.52
2023-12-15T05:55:55.217Z,0.52
2023-12-15T05:56:55.172Z,0.52
2023-12-15T05:57:55.176Z,0.52
2023-12-15T05:58:55.203Z,0.53
2023-12-15T05:59:55.188Z,0.52
2023-12-15T06:00:55.184Z,0.52
2023-12-15T06:01:55.199Z,0.52
2023-12-15T06:02:55.189Z,0.53
2023-12-15T06:03:55.121Z,0.52
2023-12-15T06:04:55.127Z,0.53
2023-12-15T06:05:55.176Z,0.51
2023-12-15T06:06:55.117Z,0.53
2023-12-15T06:07:55.154Z,0.52
2023-12-15T06:08:55.074Z,0.52
2023-12-15T06:09:55.078Z,0.52
2023-12-15T06:10:55.101Z,0.52
2023-12-15T06:11:55.041Z,0.52
2023-12-15T06:12:55.043Z,0.52
2023-12-15T06:13:55.048Z,0.52
2023-12-15T06:14:55.021Z,0.51
2023-12-15T06:15:55.037Z,0.52
2023-12-15T06:16:55.071Z,0.51
2023-12-15T06:17:55.142Z,0.52
2023-12-15T06:18:55.201Z,0.53
2023-12-15T06:19:55.019Z,0.52
2023-12-15T06:20:53.959Z,0.52
2023-12-15T06:21:53.952Z,0.52
2023-12-15T06:22:56.083Z,0.52
2023-12-15T06:23:54.937Z,0.53
2023-12-15T06:24:54.932Z,0.52
2023-12-15T06:25:54.966Z,0.52
2023-12-15T06:26:54.905Z,0.52
2023-12-15T06:27:54.902Z,0.53
2023-12-15T06:28:54.971Z,0.54
2023-12-15T06:29:54.881Z,0.53
2023-12-15T06:30:54.969Z,0.53
2023-12-15T06:31:54.948Z,0.53
2023-12-15T06:32:54.994Z,0.51
2023-12-15T06:33:54.771Z,0.54
2023-12-15T06:34:54.855Z,0.52
2023-12-15T06:35:54.831Z,0.52
2023-12-15T06:36:54.864Z,0.52
2023-12-15T06:37:54.832Z,0.52
2023-12-15T06:38:54.815Z,0.53
2023-12-15T06:39:55.138Z,0.52
2023-12-15T06:40:54.816Z,0.56
2023-12-15T06:41:58.130Z,0.59
2023-12-15T06:42:54.768Z,0.59
2023-12-15T06:43:53.763Z,0.60
2023-12-15T06:44:55.124Z,0.60
2023-12-15T06:45:55.119Z,0.62
2023-12-15T06:46:54.769Z,0.63
2023-12-15T06:47:55.080Z,0.64
2023-12-15T06:48:54.757Z,0.61
2023-12-15T06:49:54.654Z,0.60
2023-12-15T06:50:55.196Z,0.59
2023-12-15T06:51:56.753Z,0.57
2023-12-15T06:52:53.681Z,0.57
2023-12-15T06:53:55.249Z,0.55
2023-12-15T06:54:54.674Z,0.53
2023-12-15T06:55:55.225Z,0.51
2023-12-15T06:56:54.667Z,0.52
2023-12-15T06:57:55.217Z,0.51
2023-12-15T06:58:55.200Z,0.51
2023-12-15T06:59:55.620Z,0.51
2023-12-15T07:00:54.744Z,0.51
2023-12-15T07:01:54.702Z,0.50
2023-12-15T07:02:54.622Z,0.51
2023-12-15T07:04:03.163Z,0.51
2023-12-15T07:04:54.707Z,0.51
2023-12-15T07:05:55.764Z,0.51
2023-12-15T07:06:54.609Z,0.51
2023-12-15T07:07:54.621Z,0.52
2023-12-15T07:08:54.659Z,0.53
2023-12-15T07:09:54.564Z,0.52
2023-12-15T07:10:54.724Z,0.52
2023-12-15T07:11:54.525Z,0.52
2023-12-15T07:12:54.554Z,0.53
2023-12-15T07:13:54.556Z,0.51
2023-12-15T07:14:54.656Z,0.52
2023-12-15T07:15:55.525Z,0.51
2023-12-15T07:16:54.513Z,0.51
2023-12-15T07:17:55.553Z,0.52
2023-12-15T07:18:54.750Z,0.52
2023-12-15T07:19:54.523Z,0.51
2023-12-15T07:20:54.448Z,0.52
2023-12-15T07:21:54.569Z,0.53
2023-12-15T07:22:54.467Z,0.53
2023-12-15T07:23:54.651Z,0.53
2023-12-15T07:24:54.460Z,0.52
2023-12-15T07:25:54.466Z,0.52
2023-12-15T07:26:54.469Z,0.51
2023-12-15T07:27:54.445Z,0.52
2023-12-15T07:28:54.512Z,0.52
2023-12-15T07:29:54.657Z,0.52
2023-12-15T07:30:54.531Z,0.52
2023-12-15T07:31:54.497Z,0.52
2023-12-15T07:32:54.806Z,0.53
2023-12-15T07:33:54.764Z,0.53
2023-12-15T07:34:54.480Z,0.53
2023-12-15T07:35:54.604Z,0.52
2023-12-15T07:36:54.660Z,0.53
2023-12-15T07:37:54.451Z,0.53
2023-12-15T07:38:54.463Z,0.53
2023-12-15T07:39:54.531Z,0.52
2023-12-15T07:40:54.643Z,0.53
2023-12-15T07:41:55.476Z,0.52
2023-12-15T07:42:55.477Z,0.53
2023-12-15T07:43:54.701Z,0.53
2023-12-15T07:44:54.478Z,0.52
2023-12-15T07:45:54.438Z,0.52
2023-12-15T07:46:54.436Z,0.53
2023-12-15T07:47:53.677Z,0.52
2023-12-15T07:48:54.759Z,0.53
2023-12-15T07:49:54.441Z,0.52
2023-12-15T07:50:55.569Z,0.52
2023-12-15T07:51:54.470Z,0.53
2023-12-15T07:52:54.502Z,0.53
2023-12-15T07:53:54.651Z,0.53
2023-12-15T07:54:53.509Z,0.53
2023-12-15T07:55:54.518Z,0.53
2023-12-15T07:56:54.503Z,0.52
2023-12-15T07:57:54.513Z,0.52
2023-12-15T07:58:54.647Z,0.53
2023-12-15T07:59:54.454Z,0.52
2023-12-15T08:00:54.462Z,0.52
2023-12-15T08:01:54.526Z,0.53
2023-12-15T08:02:54.626Z,0.53
2023-12-15T08:03:54.452Z,0.52
2023-12-15T08:04:54.438Z,0.53
2023-12-15T08:05:54.496Z,0.53
2023-12-15T08:06:54.437Z,0.53
2023-12-15T08:07:54.478Z,0.52
2023-12-15T08:08:54.655Z,0.53
2023-12-15T08:09:54.231Z,0.53
2023-12-15T08:10:54.498Z,0.52
2023-12-15T08:11:54.057Z,0.53
2023-12-15T08:12:54.081Z,0.53
2023-12-15T08:13:54.512Z,0.53
2023-12-15T08:14:54.025Z,0.53
2023-12-15T08:15:54.012Z,0.53
2023-12-15T08:16:54.442Z,0.54
2023-12-15T08:17:54.321Z,0.53
2023-12-15T08:18:55.061Z,0.54
2023-12-15T08:19:53.984Z,0.54
2023-12-15T08:20:54.442Z,0.54
2023-12-15T08:21:53.998Z,0.53
2023-12-15T08:22:53.950Z,0.54
2023-12-15T08:23:54.481Z,0.54
2023-12-15T08:24:53.942Z,0.53
2023-12-15T08:25:54.444Z,0.53
2023-12-15T08:26:53.936Z,0.54
2023-12-15T08:27:53.988Z,0.54
2023-12-15T08:28:54.445Z,0.54
2023-12-15T08:29:54.662Z,0.53
2023-12-15T08:30:54.049Z,0.55
2023-12-15T08:31:53.947Z,0.55
2023-12-15T08:32:54.296Z,0.54
2023-12-15T08:33:54.331Z,0.53
2023-12-15T08:34:53.844Z,0.56
2023-12-15T08:35:53.849Z,0.54
2023-12-15T08:36:53.834Z,0.54
2023-12-15T08:37:53.859Z,0.55
2023-12-15T08:38:54.169Z,0.55
2023-12-15T08:39:53.837Z,0.56
2023-12-15T08:40:53.817Z,0.55
2023-12-15T08:41:53.785Z,0.55
2023-12-15T08:42:54.190Z,0.55
2023-12-15T08:43:53.782Z,0.55
2023-12-15T08:44:57.028Z,0.55
2023-12-15T08:45:53.754Z,0.55
2023-12-15T08:46:53.771Z,0.55
2023-12-15T08:47:54.793Z,0.55
2023-12-15T08:48:53.921Z,0.56
2023-12-15T08:49:53.765Z,0.55
2023-12-15T08:50:54.673Z,0.56
2023-12-15T08:51:54.177Z,0.56
2023-12-15T08:52:53.681Z,0.57
2023-12-15T08:53:54.172Z,0.56
2023-12-15T08:54:53.676Z,0.56
2023-12-15T08:55:53.688Z,0.56
2023-12-15T08:56:53.724Z,0.56
2023-12-15T08:57:53.644Z,0.57
2023-12-15T08:58:53.632Z,0.57
2023-12-15T08:59:53.619Z,0.56
2023-12-15T09:00:53.627Z,0.56
2023-12-15T09:01:54.161Z,0.56
2023-12-15T09:02:54.040Z,0.57
2023-12-15T09:03:53.694Z,0.56
2023-12-15T09:05:01.850Z,0.57
2023-12-15T09:06:16.409Z,0.57
2023-12-15T09:06:53.838Z,0.57
2023-12-15T09:07:53.629Z,0.58
2023-12-15T09:08:53.875Z,0.58
2023-12-15T09:09:53.541Z,0.58
2023-12-15T09:10:54.237Z,0.59
2023-12-15T09:11:53.569Z,0.58
2023-12-15T09:12:53.562Z,0.60
2023-12-15T09:13:53.682Z,0.59
2023-12-15T09:14:53.555Z,0.58
2023-12-15T09:15:53.585Z,0.57
2023-12-15T09:16:53.564Z,0.58
2023-12-15T09:17:53.820Z,0.58
2023-12-15T09:18:53.623Z,0.59
2023-12-15T09:19:53.577Z,0.58
2023-12-15T09:20:53.560Z,0.59
2023-12-15T09:21:53.689Z,0.59
2023-12-15T09:22:53.563Z,0.57
2023-12-15T09:23:53.575Z,0.60
2023-12-15T09:24:53.573Z,0.58
2023-12-15T09:25:54.327Z,0.58
2023-12-15T09:26:53.570Z,0.59
2023-12-15T09:27:53.590Z,0.58
2023-12-15T09:28:53.573Z,0.59
2023-12-15T09:29:53.563Z,0.58
2023-12-15T09:30:53.596Z,0.59
2023-12-15T09:31:53.590Z,0.59
2023-12-15T09:32:53.738Z,0.59
2023-12-15T09:33:53.739Z,0.59
2023-12-15T09:34:54.181Z,0.59
2023-12-15T09:35:53.570Z,0.60
2023-12-15T09:36:53.527Z,0.59
2023-12-15T09:37:53.507Z,0.59
2023-12-15T09:38:53.691Z,0.59
2023-12-15T09:39:53.504Z,0.59
2023-12-15T09:40:53.513Z,0.60
2023-12-15T09:41:53.513Z,0.59
2023-12-15T09:42:53.328Z,0.60
2023-12-15T09:43:53.713Z,0.60
2023-12-15T09:45:04.294Z,0.60
2023-12-15T09:45:53.566Z,0.60
2023-12-15T09:46:53.579Z,0.60
2023-12-15T09:47:53.761Z,0.60
2023-12-15T09:48:53.726Z,0.61
2023-12-15T09:49:53.503Z,0.61
2023-12-15T09:50:53.631Z,0.61
2023-12-15T09:51:52.697Z,0.61
2023-12-15T09:52:53.510Z,0.61
2023-12-15T09:53:53.728Z,0.61
2023-12-15T09:54:53.731Z,0.61
2023-12-15T09:55:53.547Z,0.61
2023-12-15T09:56:53.571Z,0.61
2023-12-15T09:57:53.472Z,0.60
2023-12-15T09:58:52.307Z,0.60
2023-12-15T09:59:53.571Z,0.60
2023-12-15T10:00:53.164Z,0.61
2023-12-15T10:01:53.098Z,0.61
2023-12-15T10:02:53.205Z,0.62
2023-12-15T10:03:53.106Z,0.61
2023-12-15T10:04:53.546Z,0.62
2023-12-15T10:05:53.161Z,0.63
2023-12-15T10:06:52.369Z,0.62
2023-12-15T10:07:53.108Z,0.63
2023-12-15T10:09:01.309Z,0.62
2023-12-15T10:09:53.087Z,0.62
2023-12-15T10:10:53.424Z,0.62
2023-12-15T10:11:53.080Z,0.63
2023-12-15T10:12:53.072Z,0.63
2023-12-15T10:13:53.059Z,0.63
2023-12-15T10:14:53.034Z,0.62
2023-12-15T10:15:53.558Z,0.62
2023-12-15T10:16:53.008Z,0.63
2023-12-15T10:17:53.043Z,0.63
2023-12-15T10:18:53.084Z,0.63
2023-12-15T10:19:53.034Z,0.63
2023-12-15T10:20:53.086Z,0.63
2023-12-15T10:21:53.526Z,0.63
2023-12-15T10:22:52.975Z,0.65
2023-12-15T10:23:54.927Z,0.66
2023-12-15T10:24:53.516Z,0.67
2023-12-15T10:25:52.921Z,0.67
2023-12-15T10:26:52.937Z,0.67
2023-12-15T10:27:53.911Z,0.66
2023-12-15T10:28:53.590Z,0.65
2023-12-15T10:29:52.890Z,0.65
2023-12-15T10:30:53.957Z,0.65
2023-12-15T10:31:53.548Z,0.65
2023-12-15T10:32:53.054Z,0.65
2023-12-15T10:33:52.883Z,0.64
2023-12-15T10:34:52.862Z,0.66
2023-12-15T10:35:52.890Z,0.65
2023-12-15T10:36:53.516Z,0.66
2023-12-15T10:37:52.815Z,0.64
2023-12-15T10:38:52.804Z,0.65
2023-12-15T10:39:52.788Z,0.65
2023-12-15T10:40:52.785Z,0.66
2023-12-15T10:41:52.791Z,0.66
2023-12-15T10:42:54.526Z,0.68
2023-12-15T10:43:54.698Z,0.69
2023-12-15T10:44:53.506Z,0.72
2023-12-15T10:45:53.509Z,0.71
2023-12-15T10:46:52.307Z,0.71
2023-12-15T10:47:53.849Z,0.72
2023-12-15T10:48:53.601Z,0.74
2023-12-15T10:49:53.749Z,0.78
2023-12-15T10:50:53.515Z,0.88
2023-12-15T10:51:53.498Z,0.91
2023-12-15T10:52:53.724Z,0.93
2023-12-15T10:53:53.511Z,0.98
2023-12-15T10:54:53.509Z,1.10
2023-12-15T10:55:53.461Z,1.19
2023-12-15T10:56:53.573Z,1.22
2023-12-15T10:57:53.095Z,1.24
2023-12-15T10:58:53.076Z,1.21
2023-12-15T10:59:53.069Z,1.16
2023-12-15T11:00:53.275Z,1.11
2023-12-15T11:01:53.067Z,1.10
2023-12-15T11:02:53.048Z,1.05
2023-12-15T11:03:53.061Z,1.02
2023-12-15T11:04:53.030Z,1.00
2023-12-15T11:05:53.130Z,0.96
2023-12-15T11:06:53.027Z,0.93
2023-12-15T11:07:52.997Z,1.00
2023-12-15T11:08:52.994Z,1.12
2023-12-15T11:09:53.977Z,1.25
2023-12-15T11:10:53.033Z,1.12
2023-12-15T11:11:53.133Z,1.09
2023-12-15T11:12:52.963Z,0.97
2023-12-15T11:13:52.943Z,0.92
2023-12-15T11:14:53.226Z,0.82
2023-12-15T11:15:52.927Z,0.77
2023-12-15T11:16:52.976Z,0.65
2023-12-15T11:17:53.361Z,0.61
2023-12-15T11:18:53.137Z,0.60
2023-12-15T11:19:52.944Z,0.57
2023-12-15T11:20:52.951Z,0.53
2023-12-15T11:21:51.880Z,0.52
2023-12-15T11:22:52.344Z,0.49
2023-12-15T11:23:52.870Z,0.48
2023-12-15T11:24:52.844Z,0.47
2023-12-15T11:25:52.851Z,0.46
2023-12-15T11:26:52.826Z,0.49
2023-12-15T11:27:53.236Z,0.50
2023-12-15T11:28:52.811Z,0.50
2023-12-15T11:29:52.802Z,0.50
2023-12-15T11:30:52.980Z,0.50
2023-12-15T11:31:52.801Z,0.50
2023-12-15T11:32:53.297Z,0.50
2023-12-15T11:33:53.321Z,0.51
2023-12-15T11:34:52.769Z,0.52
2023-12-15T11:35:52.792Z,0.50
2023-12-15T11:36:52.834Z,0.54
2023-12-15T11:37:53.228Z,0.55
2023-12-15T11:38:52.739Z,0.54
2023-12-15T11:39:52.717Z,0.54
2023-12-15T11:40:52.717Z,0.52
2023-12-15T11:41:52.687Z,0.52
2023-12-15T11:42:52.733Z,0.52
2023-12-15T11:43:52.670Z,0.51
2023-12-15T11:44:52.661Z,0.51
2023-12-15T11:45:52.665Z,0.51
2023-12-15T11:46:52.652Z,0.51
2023-12-15T11:47:53.782Z,0.50
2023-12-15T11:48:52.721Z,0.50
2023-12-15T11:49:52.627Z,0.50
2023-12-15T11:50:52.705Z,0.50
2023-12-15T11:51:52.688Z,0.51
2023-12-15T11:52:52.621Z,0.50
2023-12-15T11:53:52.732Z,0.51
2023-12-15T11:54:52.579Z,0.50
2023-12-15T11:55:52.582Z,0.51
2023-12-15T11:56:52.601Z,0.50
2023-12-15T11:57:52.556Z,0.51
2023-12-15T11:58:52.545Z,0.51
2023-12-15T11:59:52.543Z,0.50
2023-12-15T12:00:52.554Z,0.51
2023-12-15T12:01:52.514Z,0.51
2023-12-15T12:02:52.506Z,0.52
2023-12-15T12:03:52.509Z,0.52
2023-12-15T12:04:55.228Z,0.55
2023-12-15T12:05:52.615Z,0.57
2023-12-15T12:06:52.460Z,0.56
2023-12-15T12:07:52.490Z,0.59
2023-12-15T12:08:52.745Z,0.62
2023-12-15T12:09:52.449Z,0.62
2023-12-15T12:10:52.435Z,0.63
2023-12-15T12:11:52.522Z,0.66
2023-12-15T12:12:52.427Z,0.66
2023-12-15T12:13:52.408Z,0.67
2023-12-15T12:14:52.432Z,0.67
2023-12-15T12:15:52.436Z,0.67
2023-12-15T12:16:52.402Z,0.63
2023-12-15T12:17:52.507Z,0.64
2023-12-15T12:18:52.295Z,0.60
2023-12-15T12:19:52.359Z,0.59
2023-12-15T12:20:52.341Z,0.57
2023-12-15T12:21:52.338Z,0.56
2023-12-15T12:22:52.324Z,0.54
2023-12-15T12:23:52.390Z,0.53
2023-12-15T12:24:52.327Z,0.51
2023-12-15T12:25:55.283Z,0.51
2023-12-15T12:26:53.665Z,0.51
2023-12-15T12:27:52.293Z,0.52
2023-12-15T12:28:53.952Z,0.50
2023-12-15T12:29:52.262Z,0.50
2023-12-15T12:30:52.450Z,0.52
2023-12-15T12:31:52.263Z,0.50
2023-12-15T12:32:52.319Z,0.52
2023-12-15T12:33:52.550Z,0.50
2023-12-15T12:34:53.641Z,0.50
2023-12-15T12:35:52.428Z,0.50
2023-12-15T12:36:55.252Z,0.50
2023-12-15T12:37:52.425Z,0.51
2023-12-15T12:38:52.408Z,0.50
2023-12-15T12:39:52.781Z,0.52
2023-12-15T12:40:53.456Z,0.50
2023-12-15T12:41:52.447Z,0.51
2023-12-15T12:42:53.243Z,0.50
2023-12-15T12:43:52.377Z,0.51
2023-12-15T12:44:52.330Z,0.50
2023-12-15T12:45:53.273Z,0.51
2023-12-15T12:46:52.394Z,0.50
2023-12-15T12:47:52.400Z,0.51
2023-12-15T12:48:52.340Z,0.51
2023-12-15T12:49:53.054Z,0.50
2023-12-15T12:50:52.306Z,0.51
2023-12-15T12:51:52.250Z,0.51
2023-12-15T12:52:53.877Z,0.51
2023-12-15T12:53:52.283Z,0.51
2023-12-15T12:54:52.304Z,0.51
2023-12-15T12:55:52.307Z,0.52
2023-12-15T12:56:59.998Z,0.53
2023-12-15T12:57:52.212Z,0.51
2023-12-15T12:58:52.191Z,0.52
2023-12-15T12:59:52.206Z,0.53
2023-12-15T13:00:52.242Z,0.54
2023-12-15T13:01:52.503Z,0.56
2023-12-15T13:02:52.290Z,0.51
2023-12-15T13:03:52.191Z,0.52
2023-12-15T13:04:52.139Z,0.54
2023-12-15T13:05:52.404Z,0.55
2023-12-15T13:06:52.185Z,0.59
2023-12-15T13:07:52.255Z,0.59
2023-12-15T13:08:52.162Z,0.59
2023-12-15T13:09:52.092Z,0.60
2023-12-15T13:10:52.073Z,0.59
2023-12-15T13:11:52.296Z,0.60
2023-12-15T13:12:52.064Z,0.60
2023-12-15T13:13:52.067Z,0.58
2023-12-15T13:14:52.044Z,0.60
2023-12-15T13:15:52.268Z,0.60
2023-12-15T13:16:52.028Z,0.59
2023-12-15T13:17:52.076Z,0.59
2023-12-15T13:18:52.089Z,0.60
2023-12-15T13:19:52.000Z,0.61
2023-12-15T13:20:52.144Z,0.61
2023-12-15T13:21:51.981Z,0.60
2023-12-15T13:22:52.321Z,0.60
2023-12-15T13:23:52.059Z,0.61
2023-12-15T13:24:57.821Z,0.60
2023-12-15T13:25:51.956Z,0.60
2023-12-15T13:26:52.270Z,0.60
2023-12-15T13:27:51.951Z,0.59
2023-12-15T13:28:54.751Z,0.60
2023-12-15T13:29:51.932Z,0.60
2023-12-15T13:30:51.934Z,0.60
2023-12-15T13:31:51.891Z,0.60
2023-12-15T13:32:52.046Z,0.57
2023-12-15T13:33:52.020Z,0.59
2023-12-15T13:34:51.906Z,0.59
2023-12-15T13:35:59.197Z,0.58
2023-12-15T13:36:52.750Z,0.58
2023-12-15T13:37:52.754Z,0.58
2023-12-15T13:38:52.398Z,0.58
2023-12-15T13:39:52.267Z,0.57
2023-12-15T13:40:51.868Z,0.57
2023-12-15T13:41:52.849Z,0.57
2023-12-15T13:42:51.796Z,0.58
2023-12-15T13:43:51.815Z,0.58
2023-12-15T13:44:51.777Z,0.58
2023-12-15T13:45:58.072Z,0.58
2023-12-15T13:46:51.796Z,0.58
2023-12-15T13:47:51.912Z,0.58
2023-12-15T13:48:51.953Z,0.56
2023-12-15T13:49:51.729Z,0.57
2023-12-15T13:50:51.801Z,0.58
2023-12-15T13:51:51.759Z,0.57
2023-12-15T13:52:51.696Z,0.58
2023-12-15T13:53:50.789Z,0.58
2023-12-15T13:54:50.768Z,0.58
2023-12-15T13:55:51.669Z,0.58
2023-12-15T13:56:51.675Z,0.58
2023-12-15T13:57:51.650Z,0.58
2023-12-15T13:58:51.634Z,0.59
2023-12-15T13:59:55.033Z,0.58
2023-12-15T14:00:51.646Z,0.58
2023-12-15T14:01:51.605Z,0.58
2023-12-15T14:02:52.272Z,0.58
2023-12-15T14:03:51.701Z,0.57
2023-12-15T14:04:51.769Z,0.58
2023-12-15T14:05:51.631Z,0.57
2023-12-15T14:06:51.583Z,0.57